• Join FlightAware (Why Join?)
  • Login
  • US Flag 
06:01AM EDT


 

Airport Tracker/Info


-or-


 

Live Flight TrackerFlight Track Log ✈ RPA1631 ✈ 30-Jun-2013 ✈ KMSN - KDEN

Flight Track Log - Related Links

Times and Time Zones

All times are in EDT time to prevent confusion due to time zone crossing. See the RPA1631 flight status page for this flight to view local times or setup timezone preferences in your user account.

Time Position Orientation Groundspeed Altitude Reporting Facility
EDT Latitude Longitude Course Direction KTS MPH feet Rate Location/Type
09:09AM 43.1789 -89.3722 271° West 197 227 2,700  Level Chicago Center
09:10AM 43.1794 -89.4636 271° West 234 269 4,400 2,460 Climbing Chicago Center
09:11AM 43.1783 -89.5736 269° West 277 319 7,800 3,060 Climbing Chicago Center
09:12AM 43.1778 -89.6861 270° West 292 336 10,700 1,920 Climbing Chicago Center
09:13AM 43.1761 -89.8231 269° West 371 427 11,800 1,800 Climbing Chicago Center
09:14AM 43.1739 -89.9697 269° West 385 443 14,500 2,580 Climbing Chicago Center
09:15AM 43.1719 -90.1472 269° West 398 458 17,100 2,220 Climbing Chicago Center
09:16AM 43.1708 -90.2919 269° West 412 474 19,100 1,800 Climbing Chicago Center
09:17AM 43.1689 -90.4519 269° West 424 488 20,900 1,680 Climbing Chicago Center
09:18AM 43.1664 -90.6153 269° West 434 499 22,600 1,680 Climbing Chicago Center
09:19AM 43.1639 -90.8161 269° West 444 511 24,400 1,500 Climbing Chicago Center
09:20AM 43.1606 -90.9878 269° West 455 524 25,800 1,140 Climbing Chicago Center
09:21AM 43.1581 -91.1600 269° West 458 527 26,900 1,020 Climbing Minneapolis Center
09:22AM 43.1544 -91.3725 269° West 470 541 28,000 480 Climbing Minneapolis Center
09:24AM 43.1506 -91.5500 268° West 473 544 28,000  Level Minneapolis Center
09:25AM 43.1456 -91.7256 268° West 472 543 28,000  Level Minneapolis Center
09:26AM 43.1406 -91.9000 268° West 470 541 28,000  Level Minneapolis Center
09:27AM 43.1358 -92.0764 268° West 470 541 28,100 480 Climbing Minneapolis Center
09:28AM 43.1317 -92.2514 268° West 467 537 29,100 900 Climbing Minneapolis Center
09:29AM 43.1250 -92.4678 268° West 477 549 30,000 420 Climbing Minneapolis Center
09:30AM 43.1181 -92.6500 267° West 484 557 30,000  Level Minneapolis Center
09:31AM 43.1125 -92.8264 268° West 475 547 30,000  Level Minneapolis Center
09:32AM 43.1058 -93.0064 267° West 476 548 30,000 180 Level Minneapolis Center
09:33AM 43.1003 -93.1836 268° West 474 545 30,400 780 Climbing Minneapolis Center
09:34AM 43.0917 -93.3625 266° West 475 547 31,600 780 Climbing Minneapolis Center
09:35AM 43.0708 -93.5728 262° West 470 541 32,000 480 Climbing Minneapolis Center
09:36AM 43.0553 -93.7469 263° West 467 537 32,600 600 Climbing Minneapolis Center
09:37AM 43.0317 -93.9164 259° West 461 531 33,300 660 Climbing Minneapolis Center
09:38AM 42.9975 -94.0875 255° West 467 537 34,000 300 Climbing Minneapolis Center
09:39AM 42.9636 -94.2569 255° West 468 539 34,000  Level Minneapolis Center
09:40AM 42.9239 -94.4578 255° West 462 532 34,000  Level Minneapolis Center
09:41AM 42.8856 -94.6567 255° West 460 529 34,000  Level Minneapolis Center
09:42AM 42.8514 -94.8236 254° West 458 527 34,000  Level Minneapolis Center
09:43AM 42.8181 -94.9900 255° West 456 525 34,000  Level Minneapolis Center
09:44AM 42.7844 -95.1536 254° West 452 520 34,000  Level Minneapolis Center
09:45AM 42.7514 -95.3178 255° West 451 519 34,000  Level Minneapolis Center
09:46AM 42.7142 -95.4972 254° West 455 524 34,000  Level Minneapolis Center
09:47AM 42.6786 -95.6614 254° West 456 525 34,000  Level Minneapolis Center
09:48AM 42.6453 -95.8242 254° West 450 518 34,000  Level Minneapolis Center
09:49AM 42.6094 -95.9894 254° West 457 526 34,000  Level Minneapolis Center
09:50AM 42.5747 -96.1539 254° West 455 524 34,000  Level Minneapolis Center
09:51AM 42.5472 -96.2856 254° West 456 525 34,000  Level Minneapolis Center
09:52AM 42.4975 -96.5128 254° West 453 521 34,000  Level Minneapolis Center
09:53AM 42.4611 -96.6781 253° West 457 526 34,000  Level Minneapolis Center
09:55AM 42.4244 -96.8425 253° West 458 527 34,000  Level Minneapolis Center
09:56AM 42.3808 -97.0392 253° West 457 526 34,000  Level Minneapolis Center
09:57AM 42.3444 -97.2044 253° West 458 527 34,000  Level Minneapolis Center
09:58AM 42.3072 -97.3664 253° West 456 525 34,000  Level Minneapolis Center
09:59AM 42.2703 -97.5306 253° West 457 526 34,000  Level Minneapolis Center
10:00AM 42.2250 -97.7278 253° West 459 528 34,000  Level Minneapolis Center
10:01AM 42.1919 -97.8706 253° West 455 524 34,000  Level Minneapolis Center
10:02AM 42.1539 -98.0311 252° West 453 521 34,000  Level Minneapolis Center
10:03AM 42.1100 -98.2233 253° West 449 517 34,000  Level Minneapolis Center
10:04AM 42.0722 -98.3808 252° West 446 513 34,000  Level Minneapolis Center
10:05AM 42.0353 -98.5381 252° West 443 510 34,000  Level Minneapolis Center
10:06AM 41.9972 -98.6928 252° West 440 506 34,000  Level Minneapolis Center
10:07AM 41.9606 -98.8472 252° West 437 503 34,000  Level Minneapolis Center
10:08AM 41.9222 -99.0031 252° West 440 506 34,000  Level Minneapolis Center
10:09AM 41.8761 -99.1922 252° West 446 513 34,000  Level Minneapolis Center
10:10AM 41.8278 -99.3814 251° West 448 516 34,000  Level Denver Center
10:11AM 41.7836 -99.5386 249° West 451 519 34,000  Level Denver Center
10:12AM 41.7367 -99.6936 248° West 451 519 34,000  Level Denver Center
10:13AM 41.6906 -99.8531 249° West 458 527 34,000  Level Denver Center
10:14AM 41.6375 -100.0286 248° West 458 527 34,000  Level Denver Center
10:15AM 41.5925 -100.1797 248° West 459 528 34,000  Level Denver Center
10:16AM 41.5408 -100.3539 248° West 455 524 34,000  Level Denver Center
10:17AM 41.4939 -100.5058 248° West 461 531 34,000  Level Denver Center
10:19AM 41.4406 -100.6811 248° West 460 529 34,000  Level Denver Center
10:20AM 41.3947 -100.8303 248° West 459 528 34,000  Level Denver Center
10:21AM 41.3408 -101.0036 248° West 455 524 34,000  Level Denver Center
10:22AM 41.2947 -101.1522 248° West 456 525 34,000  Level Denver Center
10:23AM 41.2508 -101.2925 247° West 437 503 34,000  Level Denver Center
10:24AM 41.2006 -101.4544 248° West 429 494 34,000  Level Denver Center
10:25AM 41.1414 -101.6400 247° West 429 494 34,000  Level Denver Center
10:26AM 41.0961 -101.7806 247° West 432 497 34,000  Level Denver Center
10:27AM 41.0433 -101.9431 247° West 433 498 34,000  Level Denver Center
10:28AM 40.9992 -102.0825 247° West 431 496 34,000  Level Denver Center
10:29AM 40.9450 -102.2461 246° West 435 501 34,000  Level Denver Center
10:30AM 40.9003 -102.3858 247° West 435 501 34,000  Level Denver Center
10:31AM 40.8467 -102.5494 247° West 434 499 34,000  Level Denver Center
10:32AM 40.8000 -102.6906 246° West 438 504 34,000  Level Denver Center
10:33AM 40.7619 -102.8075 247° West 436 502 34,000  Level Denver Center
10:34AM 40.6989 -102.9961 246° West 440 506 34,000 -540 Level Denver Center
10:35AM 40.6542 -103.1322 247° West 442 509 32,900 -1,800 Descending Denver Center
10:36AM 40.5936 -103.3125 246° West 450 518 30,000 -2,580 Descending Denver Center
10:38AM 40.5314 -103.4936 246° West 456 525 27,100 -2,580 Descending Denver Center
10:39AM 40.4806 -103.6442 246° West 452 520 24,700 -2,340 Descending Denver Center
10:40AM 40.4289 -103.7967 246° West 437 503 22,300 -2,280 Descending Denver Center
10:41AM 40.3806 -103.9433 247° West 409 471 20,000 -2,220 Descending Denver Center
10:42AM 40.3369 -104.0800 247° West 405 466 17,800 -2,040 Descending Denver Center
10:43AM 40.2933 -104.2225 248° West 392 451 15,800 -1,920 Descending Denver Center
10:44AM 40.2750 -104.3458 259° West 348 400 13,900 -1,800 Descending Denver Center
10:45AM 40.2364 -104.4556 245° Southwest 314 361 12,100 -1,620 Descending Denver Center
10:46AM 40.1919 -104.5436 237° Southwest 293 337 10,600 -1,500 Descending Denver Center
10:47AM 40.1250 -104.5997 213° Southwest 274 315 9,000 -1,500 Descending Denver Center
10:48AM 40.0603 -104.6383 205° Southwest 258 297 7,600 -1,020 Descending Denver Center
10:49AM 39.9994 -104.6742 204° Southwest 222 255 7,000 -600 Descending Denver Center
10:50AM 39.9475 -104.6861 190° South 194 223 6,400 -660 Descending Denver Center
10:51AM 39.9092 -104.6867 181° South 169 194 5,700 -720 Descending Denver Center
10:53AM 39.8617 -104.6732 190° South  Level Estimated
11:00AM 39.8617 -104.6732 190° South  Level Estimated
11:01AM 39.8617 -104.6732 190° South  Level Estimated
11:02AM 39.8617 -104.6732 190° South  Level Estimated